Date,TemperatureHighF,TemperatureAvgF,TemperatureLowF,DewpointHighF,DewpointAvgF,DewpointLowF,HumidityHigh,HumidityAvg,HumidityLow,PressureMaxIn,PressureMinIn,WindSpeedMaxMPH,WindSpeedAvgMPH,GustSpeedMaxMPH,PrecipitationSumIn
2013-1-1,47.5,-10.8,-13.0,-7.3,-16.8,-19.0,75,74,73,30.23,28.99,2,0,2,0.00
2013-1-2,25.3,18.9,12.9,13.4,11.0,6.1,85,71,58,30.09,29.99,8,3,8,0.00
2013-1-3,24.4,17.9,8.1,18.9,13.1,3.2,86,81,78,30.18,30.03,9,5,9,0.00
2013-1-4,40.1,19.5,3.2,26.3,12.3,-0.3,90,74,59,30.14,30.01,10,3,10,0.00
2013-1-5,36.1,19.7,3.9,26.2,14.4,-0.9,87,80,65,30.17,29.86,11,3,11,0.00
2013-1-6,31.1,20.9,5.9,23.1,15.3,1.1,90,79,69,30.23,29.89,8,3,8,0.00
2013-1-7,39.7,24.1,5.9,27.0,17.3,1.6,88,76,58,30.19,29.92,9,4,9,0.00
2013-1-8,41.0,28.2,10.0,31.4,23.3,6.4,92,82,66,30.05,29.86,15,4,15,0.00
2013-1-9,40.6,32.1,21.7,31.8,22.4,15.9,89,68,53,30.40,29.86,17,6,17,0.00
2013-1-10,39.0,30.3,15.4,33.5,25.6,12.5,98,83,59,30.45,29.99,17,7,17,0.17
2013-1-11,43.0,38.3,34.2,42.7,38.1,33.9,99,99,99,29.82,29.54,9,3,9,0.06
2013-1-12,42.8,29.1,15.8,42.5,24.1,8.7,99,82,67,30.00,29.51,17,8,17,0.01
2013-1-13,36.7,12.6,9.7,27.8,5.4,1.6,79,72,68,30.14,29.95,15,6,15,0.00
2013-1-14,19.8,10.3,1.8,9.4,4.0,-2.2,85,76,62,30.39,30.20,11,4,11,0.00
2013-1-15,31.5,16.9,1.4,18.8,9.2,-3.1,89,73,53,30.37,30.13,10,3,10,0.00
2013-1-16,32.0,25.4,18.9,29.1,18.8,6.5,89,76,56,30.11,29.71,13,6,13,0.00
2013-1-17,36.7,16.7,8.6,5.7,1.9,-15.7,63,52,46,30.35,30.13,15,6,15,0.00
2013-1-18,44.1,27.9,7.2,32.9,22.4,1.7,93,80,64,30.35,29.75,11,4,11,0.01
2013-1-19,45.5,25.6,9.3,36.1,17.0,-2.0,99,70,51,29.94,29.61,37,12,40,0.01
2013-1-20,12.6,5.9,1.4,-3.3,-5.9,-7.6,67,58,44,30.29,30.02,18,6,18,0.00
2013-1-21,25.0,-3.2,-7.1,15.3,-15.6,-19.0,71,54,48,30.22,30.11,23,7,23,0.00
2013-1-22,3.0,-5.1,-11.7,-11.7,-15.3,-19.5,70,61,48,30.32,30.25,9,4,9,0.00
2013-1-23,16.7,8.0,-6.3,10.0,0.7,-13.6,76,71,66,30.26,30.05,24,6,24,0.00
2013-1-24,6.4,-3.9,-6.9,-3.5,-11.4,-14.1,74,70,63,30.63,30.47,4,2,4,0.00
2013-1-25,28.2,17.5,10.8,19.3,10.2,5.0,77,72,70,30.14,30.00,15,6,15,0.09
2013-1-26,48.4,15.5,-5.6,19.2,5.9,-11.1,82,66,54,30.37,30.22,9,3,9,0.00
2013-1-27,33.6,28.1,21.4,32.3,24.3,11.8,99,87,63,30.26,29.88,28,4,28,0.00
2013-1-28,35.6,32.6,30.6,33.8,32.0,30.3,99,98,92,29.93,29.74,4,0,4,0.05
2013-1-29,42.1,36.0,32.7,41.8,35.7,32.5,99,99,99,29.71,29.52,11,4,11,0.08
2013-1-30,32.7,25.8,14.2,32.5,25.0,10.1,99,97,84,29.57,29.40,21,6,21,0.01
2013-1-31,24.8,6.1,0.0,6.2,-0.4,-6.1,85,74,59,30.07,29.62,17,7,17,0.00